Friday, May 25, 2018, 8:02 PM EDT
Back to Local

KMHT, Manchester Airport

Location: Manchester, NH, United States Lat: 42.933
Local Time: 8:02 PM EDT ( 0:02 GMT) Lon: -71.433
Time Zone: US/Eastern Elev: 232 ft

Show me the last for .
Show Decoded

2018-05-25 18:53 METAR KMHT 252253Z 28006KT 10SM BKN100 BKN250 30/07 A2972 RMK AO2 SLP072
                 T03000067 =
2018-05-25 17:53 METAR KMHT 252153Z VRB03KT 10SM BKN120 BKN250 30/07 A2971 RMK AO2 SLP070
                 T03000072 =
2018-05-25 16:53 METAR KMHT 252053Z 25006KT 10SM BKN100 OVC250 30/06 A2972 RMK AO2 SLP075
                 T03000061 56012 =
2018-05-25 15:53 METAR KMHT 251953Z 25008G16KT 10SM SCT100 BKN250 32/06 A2973 RMK AO2 SLP078
                 T03170056 =
2018-05-25 14:53 METAR KMHT 251853Z 29012G23KT 10SM FEW100 BKN250 32/04 A2974 RMK AO2 SLP081
                 T03220039 =
2018-05-25 13:53 METAR KMHT 251753Z 28010G21KT 10SM BKN200 32/04 A2976 RMK AO2 SLP086 T03170044
                 10328 20206 56030 =
2018-05-25 12:53 METAR KMHT 251653Z 27009G22KT 10SM FEW200 BKN250 31/08 A2978 RMK AO2 SLP095
                 T03110083 =
2018-05-25 11:53 METAR KMHT 251553Z 27011G25KT 10SM SCT200 30/07 A2982 RMK AO2 SLP108 T03000072 =
2018-05-25 10:53 METAR KMHT 251453Z 26010G20KT 240V320 10SM FEW200 29/08 A2985 RMK AO2 SLP116
                 T02890083 58020 =
2018-05-25 09:53 METAR KMHT 251353Z 24008KT 10SM FEW200 26/09 A2987 RMK AO2 SLP126 T02610089 =
2018-05-25 08:53 METAR KMHT 251253Z 24005KT 10SM CLR 23/09 A2989 RMK AO2 SLP131 T02330094 =
2018-05-25 07:53 METAR KMHT 251153Z 21006KT 10SM CLR 21/10 A2991 RMK AO2 SLP136 T02060100 10206
                 20144 58004 =
2018-05-25 06:53 METAR KMHT 251053Z 19005KT 10SM CLR 17/09 A2991 RMK AO2 SLP140 T01720094 =
2018-05-25 05:53 METAR KMHT 250953Z 17003KT 10SM CLR 16/09 A2992 RMK AO2 SLP143 T01610094 =
2018-05-25 04:53 METAR KMHT 250853Z 20003KT 10SM CLR 15/09 A2992 RMK AO2 SLP142 T01500094 56016 =
2018-05-25 03:53 METAR KMHT 250753Z 20005KT 10SM CLR 15/09 A2993 RMK AO2 SLP145 T01500094 =
2018-05-25 02:53 METAR KMHT 250653Z 15003KT 10SM CLR 15/10 A2995 RMK AO2 SLP151 T01500100 =
2018-05-25 01:53 METAR KMHT 250553Z 18004KT 10SM CLR 16/11 A2997 RMK AO2 SLP158 T01560106 10250
                 20156 58017 =
2018-05-25 00:53 METAR KMHT 250453Z 19006KT 10SM CLR 16/11 A2999 RMK AO2 SLP164 T01610106
                 402670122 =
2018-05-24 23:53 METAR KMHT 250353Z 17007KT 10SM CLR 17/11 A3000 RMK AO2 SLP169 T01670106 =
2018-05-24 22:53 METAR KMHT 250253Z 18007KT 10SM CLR 17/10 A3002 RMK AO2 SLP175 T01720100 50003 =
2018-05-24 21:53 METAR KMHT 250153Z 18008KT 10SM CLR 18/10 A3003 RMK AO2 SLP180 T01830100 =
2018-05-24 20:53 METAR KMHT 250053Z 16007KT 10SM CLR 19/10 A3002 RMK AO2 SLP177 T01940100 =

Support USWX by starting your Amazon purchase here.